createdAt,value
2019-01-27T00:01:59.034Z,110.30
2019-01-27T00:04:30.403Z,121.37
2019-01-27T00:07:00.749Z,125.27
2019-01-27T00:09:31.530Z,126.27
2019-01-27T00:12:01.875Z,123.77
2019-01-27T00:14:32.402Z,135.30
2019-01-27T00:17:04.535Z,123.63
2019-01-27T00:19:34.962Z,125.20
2019-01-27T00:22:06.101Z,137.63
2019-01-27T00:24:36.802Z,130.30
2019-01-27T00:27:07.138Z,120.07
2019-01-27T00:29:37.530Z,118.00
2019-01-27T00:32:08.597Z,124.17
2019-01-27T00:34:38.970Z,128.83
2019-01-27T00:37:09.306Z,108.80
2019-01-27T00:39:39.680Z,107.23
2019-01-27T00:42:10.046Z,106.10
2019-01-27T00:44:40.386Z,107.17
2019-01-27T00:47:10.739Z,96.63
2019-01-27T00:49:41.443Z,95.20
2019-01-27T00:52:11.843Z,88.10
2019-01-27T00:54:42.173Z,87.43
2019-01-27T00:57:12.538Z,93.77
2019-01-27T00:59:42.902Z,92.53
2019-01-27T01:02:13.314Z,89.17
2019-01-27T01:04:43.807Z,84.27
2019-01-27T01:07:14.238Z,75.53
2019-01-27T01:09:46.030Z,82.13
2019-01-27T01:12:16.369Z,82.63
2019-01-27T01:14:46.707Z,70.77
2019-01-27T01:17:17.072Z,75.57
2019-01-27T01:19:47.410Z,67.63
2019-01-27T01:22:17.778Z,67.60
2019-01-27T01:24:48.114Z,67.77
2019-01-27T01:27:18.501Z,60.67
2019-01-27T01:29:48.838Z,59.07
2019-01-27T01:32:19.297Z,63.67
2019-01-27T01:34:49.634Z,63.20
2019-01-27T01:37:20.202Z,59.60
2019-01-27T01:39:50.538Z,48.43
2019-01-27T01:42:20.927Z,43.50
2019-01-27T01:44:51.266Z,39.57
2019-01-27T01:47:22.029Z,47.37
2019-01-27T01:49:52.353Z,45.70
2019-01-27T01:52:23.179Z,49.43
2019-01-27T01:54:53.543Z,51.37
2019-01-27T01:57:24.282Z,50.70
2019-01-27T01:59:54.638Z,51.00
2019-01-27T02:02:25.402Z,63.63
2019-01-27T02:04:56.691Z,62.13
2019-01-27T02:07:27.078Z,64.30
2019-01-27T02:09:57.434Z,53.20
2019-01-27T02:12:27.790Z,53.13
2019-01-27T02:15:00.231Z,69.90
2019-01-27T02:17:31.178Z,57.30
2019-01-27T02:20:01.902Z,50.13
2019-01-27T02:22:33.346Z,51.30
2019-01-27T02:25:03.706Z,57.70
2019-01-27T02:27:34.486Z,58.60
2019-01-27T02:30:07.120Z,53.07
2019-01-27T02:32:37.511Z,56.47
2019-01-27T02:35:08.247Z,50.30
2019-01-27T02:37:38.635Z,53.07
2019-01-27T02:40:10.267Z,49.13
2019-01-27T02:42:40.639Z,38.20
2019-01-27T02:45:11.049Z,45.43
2019-01-27T02:47:42.134Z,46.57
2019-01-27T02:50:13.294Z,44.70
2019-01-27T02:52:43.684Z,50.20
2019-01-27T02:55:14.418Z,51.47
2019-01-27T02:57:44.790Z,39.50
2019-01-27T03:00:15.571Z,48.93
2019-01-27T03:02:46.651Z,45.80
2019-01-27T03:05:45.133Z,49.07
2019-01-27T03:08:15.502Z,52.47
2019-01-27T03:10:45.868Z,48.97
2019-01-27T03:13:16.402Z,54.23
2019-01-27T03:15:46.742Z,46.43
2019-01-27T03:18:17.146Z,47.87
2019-01-27T03:20:47.494Z,47.33
2019-01-27T03:23:17.870Z,44.70
2019-01-27T03:25:49.288Z,46.07
2019-01-27T03:28:20.082Z,52.83
2019-01-27T03:30:50.477Z,53.23
2019-01-27T03:33:20.775Z,54.80
2019-01-27T03:35:51.142Z,47.83
2019-01-27T03:38:21.474Z,43.53
2019-01-27T03:40:51.852Z,38.50
2019-01-27T03:43:22.184Z,36.63
2019-01-27T03:45:52.706Z,36.33
2019-01-27T03:48:23.058Z,40.03
2019-01-27T03:50:53.743Z,39.27
2019-01-27T03:53:24.179Z,36.53
2019-01-27T03:55:54.560Z,30.83
2019-01-27T03:58:24.898Z,34.97
2019-01-27T04:00:55.641Z,32.40
2019-01-27T04:03:25.974Z,33.17
2019-01-27T04:05:56.514Z,38.53
2019-01-27T04:08:26.850Z,39.77
2019-01-27T04:10:57.558Z,37.30
2019-01-27T04:13:33.758Z,36.93
2019-01-27T04:16:04.353Z,33.70
2019-01-27T04:18:34.692Z,33.20
2019-01-27T04:21:05.174Z,29.60
2019-01-27T04:23:35.519Z,30.37
2019-01-27T04:26:05.882Z,27.37
2019-01-27T04:28:36.226Z,29.70
2019-01-27T04:31:06.805Z,31.43
2019-01-27T04:33:37.811Z,34.03
2019-01-27T04:36:08.406Z,33.00
2019-01-27T04:38:38.782Z,33.63
2019-01-27T04:41:09.118Z,32.50
2019-01-27T04:43:39.495Z,34.57
2019-01-27T04:46:09.838Z,33.67
2019-01-27T04:48:40.191Z,27.50
2019-01-27T04:51:10.535Z,29.47
2019-01-27T04:53:40.995Z,26.53
2019-01-27T04:56:11.326Z,25.00
2019-01-27T04:58:41.692Z,24.50
2019-01-27T05:01:12.054Z,28.43
2019-01-27T05:03:50.613Z,26.17
2019-01-27T05:06:21.097Z,26.53
2019-01-27T05:08:51.718Z,27.13
2019-01-27T05:11:22.055Z,24.63
2019-01-27T05:13:52.517Z,30.33
2019-01-27T05:16:22.859Z,23.20
2019-01-27T05:18:53.469Z,24.33
2019-01-27T05:21:23.814Z,24.40
2019-01-27T05:23:54.203Z,23.60
2019-01-27T05:26:24.547Z,29.60
2019-01-27T05:28:54.926Z,28.77
2019-01-27T05:31:25.266Z,20.80
2019-01-27T05:33:55.622Z,22.70
2019-01-27T05:36:25.986Z,22.53
2019-01-27T05:38:56.333Z,24.43
2019-01-27T05:41:26.991Z,21.20
2019-01-27T05:43:57.322Z,20.70
2019-01-27T05:46:28.395Z,21.20
2019-01-27T05:48:59.034Z,25.10
2019-01-27T05:51:29.395Z,23.80
2019-01-27T05:53:59.734Z,21.83
2019-01-27T05:56:30.194Z,22.07
2019-01-27T05:59:00.534Z,18.53
2019-01-27T06:01:30.910Z,20.77
2019-01-27T06:04:01.258Z,19.83
2019-01-27T06:06:31.664Z,19.93
2019-01-27T06:09:02.132Z,20.80
2019-01-27T06:11:32.530Z,20.97
2019-01-27T06:14:02.889Z,22.00
2019-01-27T06:16:33.227Z,19.10
2019-01-27T06:19:03.611Z,20.03
2019-01-27T06:21:33.941Z,21.13
2019-01-27T06:24:04.334Z,19.97
2019-01-27T06:26:34.673Z,20.33
2019-01-27T06:29:05.220Z,20.33
2019-01-27T06:31:35.551Z,19.20
2019-01-27T06:34:09.554Z,20.17
2019-01-27T06:36:39.903Z,18.60
2019-01-27T06:39:10.581Z,20.40
2019-01-27T06:41:41.046Z,20.30
2019-01-27T06:44:11.491Z,18.47
2019-01-27T06:46:41.846Z,18.03
2019-01-27T06:49:12.262Z,19.63
2019-01-27T06:51:42.613Z,18.70
2019-01-27T06:54:13.002Z,21.87
2019-01-27T06:56:43.344Z,22.43
2019-01-27T06:59:23.647Z,20.57
2019-01-27T07:02:12.918Z,22.40
2019-01-27T07:04:50.118Z,20.57
2019-01-27T07:07:37.351Z,20.90
2019-01-27T07:10:39.278Z,20.70
2019-01-27T07:13:27.314Z,18.20
2019-01-27T07:16:38.699Z,16.20
2019-01-27T07:19:27.966Z,18.03
2019-01-27T07:22:32.370Z,15.73
2019-01-27T07:25:24.538Z,14.03
2019-01-27T07:28:08.403Z,16.30
2019-01-27T07:31:00.470Z,14.23
2019-01-27T07:34:01.684Z,15.77
2019-01-27T07:36:49.810Z,18.00
2019-01-27T07:39:42.142Z,15.63
2019-01-27T07:42:28.958Z,14.77
2019-01-27T07:45:09.035Z,15.80
2019-01-27T07:47:45.783Z,13.97
2019-01-27T07:50:47.093Z,12.93
2019-01-27T07:53:27.095Z,12.80
2019-01-27T07:56:13.118Z,15.23
2019-01-27T07:59:17.546Z,21.17
2019-01-27T08:02:01.643Z,19.07
2019-01-27T08:04:39.670Z,14.07
2019-01-27T08:07:32.030Z,11.60
2019-01-27T08:10:20.258Z,23.13
2019-01-27T08:13:12.363Z,14.00
2019-01-27T08:16:04.687Z,15.30
2019-01-27T08:18:50.550Z,18.10
2019-01-27T08:21:38.795Z,12.43
2019-01-27T08:24:28.091Z,13.23
2019-01-27T08:27:13.918Z,11.73
2019-01-27T08:30:02.315Z,10.70
2019-01-27T08:32:51.583Z,8.13
2019-01-27T08:35:32.967Z,142.03
2019-01-27T08:38:14.616Z,33.17
2019-01-27T08:41:03.610Z,13.30
2019-01-27T08:43:43.326Z,11.27
2019-01-27T08:46:24.953Z,17.37
2019-01-27T08:48:55.284Z,12.80
2019-01-27T08:51:25.694Z,19.70
2019-01-27T08:53:56.102Z,30.70
2019-01-27T08:56:26.482Z,12.77
2019-01-27T08:58:56.826Z,37.90
2019-01-27T09:01:40.394Z,17.90
2019-01-27T09:04:19.010Z,11.33
2019-01-27T09:06:57.970Z,9.97
2019-01-27T09:09:39.318Z,8.10
2019-01-27T09:12:28.663Z,11.70
2019-01-27T09:15:17.954Z,12.23
2019-01-27T09:18:03.829Z,13.60
2019-01-27T09:20:56.138Z,10.70
2019-01-27T09:23:46.528Z,14.50
2019-01-27T09:26:45.974Z,9.23
2019-01-27T09:29:34.698Z,9.43
2019-01-27T09:32:24.487Z,9.60
2019-01-27T09:35:13.118Z,10.67
2019-01-27T09:38:01.344Z,6.90
2019-01-27T09:40:53.923Z,109.30
2019-01-27T09:43:50.159Z,10.07
2019-01-27T09:46:35.736Z,12.33
2019-01-27T09:49:26.606Z,9.50
2019-01-27T09:52:04.015Z,10.07
2019-01-27T09:54:48.450Z,7.83
2019-01-27T09:57:27.005Z,7.87
2019-01-27T10:00:14.203Z,9.93
2019-01-27T10:03:06.307Z,6.90
2019-01-27T10:05:54.490Z,7.43
2019-01-27T10:08:50.030Z,10.07
2019-01-27T10:11:27.270Z,5.47
2019-01-27T10:14:25.486Z,6.10
2019-01-27T10:17:29.910Z,7.83
2019-01-27T10:20:31.691Z,5.83
2019-01-27T10:23:12.506Z,9.27
2019-01-27T10:26:04.830Z,4.97
2019-01-27T10:28:45.006Z,5.27
2019-01-27T10:31:34.514Z,5.60
2019-01-27T10:34:26.626Z,5.23
2019-01-27T10:37:24.968Z,5.80
2019-01-27T10:40:13.962Z,4.33
2019-01-27T10:43:03.601Z,5.43
2019-01-27T10:45:59.770Z,6.67
2019-01-27T10:48:52.056Z,6.97
2019-01-27T10:51:44.878Z,4.90
2019-01-27T10:54:43.503Z,4.90
2019-01-27T10:57:18.607Z,6.53
2019-01-27T11:00:10.564Z,5.37
2019-01-27T11:02:58.509Z,6.67
2019-01-27T11:05:47.810Z,7.30
2019-01-27T11:08:40.348Z,7.83
2019-01-27T11:11:48.167Z,7.20
2019-01-27T11:14:37.433Z,6.97
2019-01-27T11:17:30.246Z,8.27
2019-01-27T11:20:10.169Z,25.57
2019-01-27T11:22:56.838Z,7.43
2019-01-27T11:25:42.694Z,7.80
2019-01-27T11:28:50.112Z,16.97
2019-01-27T11:31:29.494Z,5.33
2019-01-27T11:34:16.263Z,5.80
2019-01-27T11:37:04.583Z,6.57
2019-01-27T11:39:56.719Z,6.17
2019-01-27T11:42:45.545Z,5.87
2019-01-27T11:45:33.414Z,5.27
2019-01-27T11:48:36.858Z,4.83
2019-01-27T11:51:18.546Z,4.67
2019-01-27T11:53:48.886Z,4.77
2019-01-27T11:56:19.729Z,4.97
2019-01-27T11:58:50.411Z,3.60
2019-01-27T12:01:20.794Z,4.80
2019-01-27T12:03:51.122Z,3.90
2019-01-27T12:06:21.894Z,4.33
2019-01-27T12:08:53.190Z,5.50
2019-01-27T12:11:23.998Z,5.33
2019-01-27T12:13:54.598Z,5.40
2019-01-27T12:16:26.039Z,7.00
2019-01-27T12:18:56.397Z,5.57
2019-01-27T12:21:26.734Z,8.33
2019-01-27T12:23:57.087Z,6.47
2019-01-27T12:26:27.410Z,7.27
2019-01-27T12:28:57.769Z,7.30
2019-01-27T12:31:28.098Z,5.27
2019-01-27T12:33:58.454Z,7.37
2019-01-27T12:36:28.790Z,6.57
2019-01-27T12:38:59.499Z,6.03
2019-01-27T12:41:29.826Z,4.77
2019-01-27T12:44:00.190Z,5.43
2019-01-27T12:46:30.912Z,6.93
2019-01-27T12:49:01.734Z,6.00
2019-01-27T12:51:32.053Z,6.60
2019-01-27T12:54:02.486Z,6.63
2019-01-27T12:56:33.133Z,9.93
2019-01-27T12:59:03.582Z,5.93
2019-01-27T13:01:33.918Z,5.07
2019-01-27T13:04:04.338Z,5.63
2019-01-27T13:06:34.689Z,7.37
2019-01-27T13:09:08.126Z,6.63
2019-01-27T13:11:38.526Z,5.27
2019-01-27T13:14:09.146Z,4.23
2019-01-27T13:16:39.528Z,5.17
2019-01-27T13:19:09.849Z,5.90
2019-01-27T13:21:40.222Z,5.50
2019-01-27T13:24:10.554Z,5.03
2019-01-27T13:26:42.610Z,5.73
2019-01-27T13:29:12.938Z,5.30
2019-01-27T13:31:43.537Z,5.63
2019-01-27T13:34:13.874Z,5.07
2019-01-27T13:36:44.254Z,5.63
2019-01-27T13:39:14.589Z,5.23
2019-01-27T13:41:45.024Z,4.23
2019-01-27T13:44:15.350Z,5.13
2019-01-27T13:46:45.802Z,6.17
2019-01-27T13:49:16.158Z,5.47
2019-01-27T13:51:46.522Z,4.07
2019-01-27T13:54:16.878Z,6.57
2019-01-27T13:56:47.217Z,4.73
2019-01-27T13:59:17.582Z,4.13
2019-01-27T14:01:49.410Z,5.67
2019-01-27T14:04:20.033Z,6.10
2019-01-27T14:06:50.378Z,4.03
2019-01-27T14:09:21.374Z,4.73
2019-01-27T14:11:52.404Z,4.13
2019-01-27T14:14:23.090Z,5.33
2019-01-27T14:17:05.248Z,6.67
2019-01-27T14:19:35.626Z,6.57
2019-01-27T14:22:06.312Z,7.17
2019-01-27T14:24:36.762Z,9.17
2019-01-27T14:27:07.086Z,8.27
2019-01-27T14:29:37.485Z,7.90
2019-01-27T14:32:07.843Z,8.27
2019-01-27T14:34:38.194Z,7.57
2019-01-27T14:37:08.571Z,4.00
2019-01-27T14:39:38.909Z,5.13
2019-01-27T14:42:09.235Z,7.00
2019-01-27T14:44:39.602Z,6.27
2019-01-27T14:47:09.939Z,5.53
2019-01-27T14:49:40.276Z,5.70
2019-01-27T14:52:10.650Z,5.43
2019-01-27T14:54:40.981Z,5.37
2019-01-27T14:57:11.318Z,5.40
2019-01-27T14:59:41.690Z,4.60
2019-01-27T15:02:12.015Z,5.60
2019-01-27T15:04:42.378Z,6.70
2019-01-27T15:07:12.774Z,6.07
2019-01-27T15:09:43.180Z,4.07
2019-01-27T15:12:15.838Z,5.17
2019-01-27T15:14:46.178Z,4.87
2019-01-27T15:17:16.530Z,6.30
2019-01-27T15:19:46.918Z,3.47
2019-01-27T15:22:17.256Z,3.80
2019-01-27T15:24:47.634Z,3.83
2019-01-27T15:27:18.085Z,3.03
2019-01-27T15:29:51.330Z,4.03
2019-01-27T15:32:21.709Z,3.93
2019-01-27T15:34:52.042Z,5.37
2019-01-27T15:37:22.423Z,7.07
2019-01-27T15:39:52.746Z,4.83
2019-01-27T15:42:23.145Z,4.47
2019-01-27T15:44:53.459Z,5.20
2019-01-27T15:47:23.802Z,4.73
2019-01-27T15:49:54.258Z,5.43
2019-01-27T15:52:24.595Z,5.50
2019-01-27T15:54:54.986Z,5.03
2019-01-27T15:57:25.318Z,5.10
2019-01-27T15:59:55.679Z,19.17
2019-01-27T16:02:26.370Z,4.40
2019-01-27T16:04:57.023Z,5.23
2019-01-27T16:07:27.408Z,4.93
2019-01-27T16:09:57.810Z,5.47
2019-01-27T16:12:28.898Z,6.10
2019-01-27T16:14:59.233Z,5.53
2019-01-27T16:17:29.583Z,5.87
2019-01-27T16:19:59.969Z,5.30
2019-01-27T16:23:01.486Z,5.03
2019-01-27T16:25:31.858Z,5.03
2019-01-27T16:28:02.193Z,8.23
2019-01-27T16:30:45.104Z,9.60
2019-01-27T16:33:21.218Z,5.30
2019-01-27T16:35:51.619Z,8.90
2019-01-27T16:38:22.670Z,7.10
2019-01-27T16:40:53.038Z,7.40
2019-01-27T16:43:23.372Z,8.07
2019-01-27T16:45:53.722Z,5.37
2019-01-27T16:48:24.313Z,6.63
2019-01-27T16:50:54.890Z,5.33
2019-01-27T16:53:26.789Z,5.47
2019-01-27T16:55:57.382Z,6.50
2019-01-27T16:58:29.222Z,5.97
2019-01-27T17:00:59.710Z,6.47
2019-01-27T17:03:32.006Z,6.67
2019-01-27T17:06:02.503Z,7.63
2019-01-27T17:08:32.943Z,9.50
2019-01-27T17:11:03.570Z,6.70
2019-01-27T17:13:34.195Z,6.93
2019-01-27T17:16:06.653Z,7.30
2019-01-27T17:18:38.396Z,6.83
2019-01-27T17:21:08.859Z,8.43
2019-01-27T17:23:39.651Z,5.93
2019-01-27T17:26:11.864Z,8.87
2019-01-27T17:28:42.393Z,6.57
2019-01-27T17:31:13.214Z,5.93
2019-01-27T17:33:43.657Z,7.40
2019-01-27T17:36:14.029Z,6.70
2019-01-27T17:38:44.459Z,10.30
2019-01-27T17:41:14.898Z,9.40
2019-01-27T17:43:45.596Z,33.60
2019-01-27T17:46:16.082Z,12.70
2019-01-27T17:48:46.630Z,18.33
2019-01-27T17:51:17.479Z,9.00
2019-01-27T17:53:53.824Z,7.93
2019-01-27T17:56:25.470Z,7.33
2019-01-27T17:59:11.336Z,7.77
2019-01-27T18:01:59.193Z,6.20
2019-01-27T18:04:43.191Z,5.60
2019-01-27T18:07:51.737Z,5.60
2019-01-27T18:10:31.329Z,6.97
2019-01-27T18:13:27.854Z,8.87
2019-01-27T18:15:58.187Z,8.83
2019-01-27T18:18:28.538Z,11.00
2019-01-27T18:20:58.906Z,11.20
2019-01-27T18:23:29.942Z,9.90
2019-01-27T18:26:00.265Z,10.27
2019-01-27T18:28:30.682Z,8.97
2019-01-27T18:31:01.288Z,7.93
2019-01-27T18:33:31.637Z,5.80
2019-01-27T18:36:01.959Z,10.10
2019-01-27T18:38:32.410Z,10.60
2019-01-27T18:41:02.743Z,7.63
2019-01-27T18:43:34.090Z,9.03
2019-01-27T18:46:04.623Z,9.50
2019-01-27T18:48:35.021Z,9.57
2019-01-27T18:51:05.642Z,10.20
2019-01-27T18:53:58.030Z,8.20
2019-01-27T18:56:45.614Z,6.90
2019-01-27T18:59:37.935Z,7.23
2019-01-27T19:02:22.825Z,8.57
2019-01-27T19:05:15.162Z,6.43
2019-01-27T19:08:07.234Z,7.33
2019-01-27T19:10:59.325Z,6.03
2019-01-27T19:13:52.503Z,7.53
2019-01-27T19:16:48.876Z,5.93
2019-01-27T19:19:29.657Z,7.47
2019-01-27T19:22:25.112Z,6.20
2019-01-27T19:25:23.322Z,5.30
2019-01-27T19:28:12.619Z,5.30
2019-01-27T19:31:10.974Z,7.37
2019-01-27T19:34:03.010Z,9.57
2019-01-27T19:36:58.578Z,8.43
2019-01-27T19:39:46.622Z,11.07
2019-01-27T19:42:48.666Z,13.57
2019-01-27T19:45:36.630Z,8.00
2019-01-27T19:48:23.364Z,8.63
2019-01-27T19:51:13.285Z,9.87
2019-01-27T19:53:51.965Z,7.37
2019-01-27T19:56:53.626Z,7.77
2019-01-27T19:59:32.554Z,8.23
2019-01-27T20:02:16.935Z,8.47
2019-01-27T20:04:57.170Z,8.03
2019-01-27T20:07:47.638Z,14.50
2019-01-27T20:10:32.738Z,9.07
2019-01-27T20:13:25.127Z,10.77
2019-01-27T20:16:32.858Z,6.63
2019-01-27T20:19:25.147Z,7.40
2019-01-27T20:22:26.542Z,6.40
2019-01-27T20:25:31.226Z,8.30
2019-01-27T20:28:17.929Z,10.43
2019-01-27T20:31:10.303Z,8.57
2019-01-27T20:33:58.983Z,8.20
2019-01-27T20:36:51.214Z,10.67
2019-01-27T20:39:31.586Z,10.03
2019-01-27T20:42:17.814Z,7.50
2019-01-27T20:45:06.158Z,6.07
2019-01-27T20:48:01.478Z,7.07
2019-01-27T20:50:49.655Z,8.80
2019-01-27T20:53:39.194Z,8.00
2019-01-27T20:56:31.550Z,7.20
2019-01-27T20:59:12.414Z,10.27
2019-01-27T21:01:49.932Z,9.27
2019-01-27T21:04:26.059Z,7.60
2019-01-27T21:07:36.284Z,8.37
2019-01-27T21:10:38.290Z,8.13
2019-01-27T21:13:24.614Z,8.47
2019-01-27T21:16:02.192Z,6.47
2019-01-27T21:18:51.494Z,8.07
2019-01-27T21:21:21.845Z,6.63
2019-01-27T21:23:52.265Z,7.53
2019-01-27T21:26:22.622Z,6.80
2019-01-27T21:28:52.998Z,7.37
2019-01-27T21:31:23.318Z,7.87
2019-01-27T21:33:53.654Z,5.93
2019-01-27T21:36:24.086Z,7.23
2019-01-27T21:38:54.427Z,8.07
2019-01-27T21:41:24.802Z,5.10
2019-01-27T21:43:55.137Z,6.23
2019-01-27T21:46:25.503Z,8.03
2019-01-27T21:48:55.840Z,8.87
2019-01-27T21:51:26.213Z,10.23
2019-01-27T21:53:56.546Z,9.87
2019-01-27T21:56:27.295Z,7.10
2019-01-27T21:58:57.653Z,8.23
2019-01-27T22:01:28.059Z,6.07
2019-01-27T22:03:58.382Z,8.80
2019-01-27T22:06:28.738Z,8.67
2019-01-27T22:08:59.101Z,6.80
2019-01-27T22:11:29.438Z,7.17
2019-01-27T22:14:00.871Z,8.70
2019-01-27T22:16:31.579Z,6.57
2019-01-27T22:19:01.938Z,7.40
2019-01-27T22:21:32.274Z,6.47
2019-01-27T22:24:02.731Z,8.37
2019-01-27T22:26:33.058Z,8.33
2019-01-27T22:29:03.434Z,7.10
2019-01-27T22:31:33.770Z,7.80
2019-01-27T22:34:04.096Z,7.47
2019-01-27T22:36:34.446Z,8.47
2019-01-27T22:39:08.230Z,9.07
2019-01-27T22:41:38.579Z,6.97
2019-01-27T22:44:08.902Z,8.47
2019-01-27T22:46:39.263Z,9.13
2019-01-27T22:49:09.589Z,9.93
2019-01-27T22:51:39.950Z,8.87
2019-01-27T22:54:10.303Z,7.17
2019-01-27T22:56:40.665Z,7.50
2019-01-27T22:59:11.364Z,7.20
2019-01-27T23:01:41.824Z,7.63
2019-01-27T23:04:12.166Z,8.53
2019-01-27T23:06:42.510Z,8.40
2019-01-27T23:09:17.611Z,7.77
2019-01-27T23:11:48.098Z,6.90
2019-01-27T23:14:19.509Z,8.33
2019-01-27T23:16:49.918Z,7.37
2019-01-27T23:19:20.252Z,12.03
2019-01-27T23:21:50.974Z,8.40
2019-01-27T23:24:21.466Z,6.87
2019-01-27T23:26:52.238Z,6.47
2019-01-27T23:29:22.670Z,7.70
2019-01-27T23:31:53.442Z,8.00
2019-01-27T23:34:23.768Z,9.90
2019-01-27T23:36:54.130Z,8.30
2019-01-27T23:39:24.466Z,9.37
2019-01-27T23:41:54.807Z,9.33
2019-01-27T23:44:25.158Z,9.53
2019-01-27T23:46:55.486Z,9.90
2019-01-27T23:49:25.844Z,8.97
2019-01-27T23:51:56.172Z,8.47
2019-01-27T23:54:26.546Z,9.47
2019-01-27T23:56:56.883Z,10.07
2019-01-27T23:59:27.471Z,9.93
